ENVA Airport Information

Runway Information
Runway 09 Length 9052 ft width 148 ft
Elevation 17 ft Threshold 830 ft Heading 90
Runway 27 Length 9052 ft Width 148 ft
Elevation 56 ft Threshold 459 ft Heading 270
Runway 13 Length 4771 ft width 118 ft
Elevation 30 ft Threshold 412 ft Heading 134
Runway 31 Length 4771 ft Width 118 ft
Elevation 54 ft Threshold 962 ft Heading 314
Runway 14 Length 3117 ft width 118 ft
Elevation 30 ft Threshold 0 ft Heading 134
Runway 32 Length 3117 ft Width 118 ft
Elevation 54 ft Threshold 0 ft Heading 314
Airport Frequencies
Type APP Name APP Frequency 118.6 MHZ
Type ATIS Name ATIS Frequency 127.55 MHZ
Type GND Name Værnes gro Frequency 121.6 MHZ
Type TWR Name TWR Frequency 119.4 MHZ
Airport Navaids
Type NDB Name Flornes Frequency 380 KHZ
Type NDB Name Grakallen Frequency 358 KHZ
Type VOR-DME Name Trondheim Frequency 112500 KHZ
Type TACAN Name Vaernes Frequency 109600 KHZ
Airport Weather Information & NOTAM
ADDS - METARS form results

(0724 UTC 20 November 2018)
Data provider http://aviationweather.gov/metar/data/
 
METAR text: ENVA 200720Z 09005KT 7000 -FZDZ -SN OVC011 M01/M02 Q1037 NOSIG RMK WIND 670FT 11002KT
Conditions at: ENVA (TRONDHEIM/VAERNE, NO) observed 0720 UTC 20 November 2018
Temperature: -1.0°C (30°F)
Dewpoint: -2.0°C (28°F) [RH = 93%]
Pressure (altimeter): 30.62 inches Hg (1037.0 mb)
Winds: from the E (90 degrees) at 6 MPH (5 knots; 2.6 m/s)
Visibility: 4 miles ( 7 km)
Ceiling: 1100 feet AGL
Clouds: overcast cloud deck at 1100 feet AGL
Weather: -FZDZ -SN  (light freezing drizzle, light snow)

METAR text: ENVA 200650Z 11005KT 6000 -SN BKN017 OVC024 M01/M02 Q1037 NOSIG RMK WIND 670FT 12004KT
Conditions at: ENVA (TRONDHEIM/VAERNE, NO) observed 0650 UTC 20 November 2018
Temperature: -1.0°C (30°F)
Dewpoint: -2.0°C (28°F) [RH = 93%]
Pressure (altimeter): 30.62 inches Hg (1037.0 mb)
Winds: from the ESE (110 degrees) at 6 MPH (5 knots; 2.6 m/s)
Visibility: 4 miles ( 6 km)
Ceiling: 1700 feet AGL
Clouds: broken clouds at 1700 feet AGL
overcast cloud deck at 2400 feet AGL
Weather: -SN  (light snow)

Forecast for: ENVA (TRONDHEIM/VAERNE, NO)
Text: TAF ENVA 2006/2106 12007KT 9999 FEW015 BKN025
Forecast period: 0600 UTC 20 November 2018 to 0600 UTC 21 November 2018
Forecast type: FROM: standard forecast or significant change
Winds: from the ESE (120 degrees) at 8 MPH (7 knots; 3.6 m/s)
Visibility: 6 or more miles 10+ km)
Ceiling: 2500 feet AGL
Clouds: few clouds at 1500 feet AGL
broken clouds at 2500 feet AGL
Weather: no significant weather forecast for this period